createdAt,value
2022-11-29T00:02:07.867Z,0.69
2022-11-29T00:04:37.048Z,0.64
2022-11-29T00:07:04.767Z,0.60
2022-11-29T00:09:32.456Z,0.60
2022-11-29T00:12:12.436Z,0.59
2022-11-29T00:14:41.595Z,0.58
2022-11-29T00:17:09.631Z,0.56
2022-11-29T00:19:37.630Z,0.54
2022-11-29T00:22:05.578Z,0.51
2022-11-29T00:24:33.485Z,0.51
2022-11-29T00:27:01.887Z,0.53
2022-11-29T00:29:30.374Z,0.56
2022-11-29T00:31:59.047Z,0.56
2022-11-29T00:34:26.995Z,0.55
2022-11-29T00:36:54.926Z,0.55
2022-11-29T00:39:22.840Z,0.50
2022-11-29T00:41:50.543Z,0.47
2022-11-29T00:44:20.411Z,0.42
2022-11-29T00:46:49.992Z,0.39
2022-11-29T00:49:18.200Z,0.38
2022-11-29T00:51:47.226Z,0.39
2022-11-29T00:54:15.764Z,0.40
2022-11-29T00:56:44.073Z,0.41
2022-11-29T00:59:11.932Z,0.41
2022-11-29T01:01:39.922Z,0.41
2022-11-29T01:04:07.951Z,0.39
2022-11-29T01:06:35.708Z,0.37
2022-11-29T01:09:04.034Z,0.36
2022-11-29T01:11:32.246Z,0.36
2022-11-29T01:14:01.908Z,0.34
2022-11-29T01:16:31.355Z,0.32
2022-11-29T01:18:59.286Z,0.31
2022-11-29T01:21:27.329Z,0.34
2022-11-29T01:23:55.529Z,0.38
2022-11-29T01:26:26.496Z,0.39
2022-11-29T01:28:56.634Z,0.37
2022-11-29T01:31:36.064Z,0.36
2022-11-29T01:34:05.780Z,0.36
2022-11-29T01:36:34.056Z,0.35
2022-11-29T01:39:04.325Z,0.30
2022-11-29T01:41:35.302Z,0.27
2022-11-29T01:44:12.329Z,0.25
2022-11-29T01:46:45.696Z,0.25
2022-11-29T01:49:16.939Z,0.26
2022-11-29T01:51:50.415Z,0.27
2022-11-29T01:54:20.344Z,0.31
2022-11-29T01:56:50.789Z,0.36
2022-11-29T01:59:22.158Z,0.38
2022-11-29T02:01:49.949Z,0.38
2022-11-29T02:04:19.418Z,0.37
2022-11-29T02:06:48.524Z,0.34
2022-11-29T02:09:22.689Z,0.30
2022-11-29T02:12:09.341Z,0.27
2022-11-29T02:14:55.978Z,0.22
2022-11-29T02:17:36.172Z,0.18
2022-11-29T02:20:25.725Z,0.15
2022-11-29T02:23:23.003Z,0.10
2022-11-29T02:26:18.906Z,0.07
2022-11-29T02:29:19.564Z,0.05
2022-11-29T02:32:15.408Z,0.06
2022-11-29T02:34:57.548Z,-0.02
2022-11-29T02:37:43.706Z,-0.01
2022-11-29T02:40:35.866Z,-0.01
2022-11-29T02:43:26.989Z,0.03
2022-11-29T02:46:00.857Z,0.08
2022-11-29T02:49:07.439Z,0.12
2022-11-29T02:51:52.609Z,0.12
2022-11-29T02:54:26.021Z,0.08
2022-11-29T02:57:00.155Z,0.06
2022-11-29T02:59:33.962Z,0.03
2022-11-29T03:02:26.810Z,0.01
2022-11-29T03:05:06.774Z,-0.00
2022-11-29T03:08:06.196Z,-0.02
2022-11-29T03:10:39.543Z,-0.03
2022-11-29T03:13:20.582Z,-0.05
2022-11-29T03:15:57.788Z,-0.07
2022-11-29T03:18:28.679Z,-0.13
2022-11-29T03:21:15.388Z,-0.15
2022-11-29T03:24:14.125Z,-0.14
2022-11-29T03:26:47.757Z,-0.14
2022-11-29T03:29:15.464Z,-0.12
2022-11-29T03:31:52.755Z,-0.09
2022-11-29T03:34:36.564Z,-0.06
2022-11-29T03:37:17.807Z,-0.05
2022-11-29T03:39:52.087Z,-0.06
2022-11-29T03:42:28.918Z,-0.06
2022-11-29T03:45:11.076Z,-0.09
2022-11-29T03:47:59.091Z,-0.11
2022-11-29T03:50:35.139Z,-0.15
2022-11-29T03:53:17.179Z,-0.16
2022-11-29T03:55:55.071Z,-0.17
2022-11-29T03:58:28.979Z,-0.14
2022-11-29T04:01:09.460Z,-0.11
2022-11-29T04:04:05.717Z,-0.14
2022-11-29T04:07:12.988Z,-0.21
2022-11-29T04:10:07.211Z,-0.30
2022-11-29T04:13:13.311Z,-0.34
2022-11-29T04:16:22.868Z,-0.32
2022-11-29T04:19:34.758Z,-0.31
2022-11-29T04:22:38.084Z,-0.34
2022-11-29T04:25:33.082Z,-0.35
2022-11-29T04:28:00.805Z,-0.37
2022-11-29T04:30:45.542Z,-0.37
2022-11-29T04:33:25.744Z,-0.36
2022-11-29T04:36:11.738Z,-0.34
2022-11-29T04:39:11.002Z,-0.39
2022-11-29T04:42:08.154Z,-0.37
2022-11-29T04:44:49.473Z,-0.41
2022-11-29T04:47:26.358Z,-0.43
2022-11-29T04:50:13.234Z,-0.46
2022-11-29T04:52:44.207Z,-0.50
2022-11-29T04:55:31.083Z,-0.50
2022-11-29T04:58:22.606Z,-0.53
2022-11-29T05:01:25.769Z,-0.59
2022-11-29T05:04:01.229Z,-0.62
2022-11-29T05:07:08.693Z,-0.62
2022-11-29T05:09:58.974Z,-0.60
2022-11-29T05:12:26.740Z,-0.62
2022-11-29T05:15:28.815Z,-0.62
2022-11-29T05:17:57.662Z,-0.64
2022-11-29T05:20:25.532Z,-0.67
2022-11-29T05:23:16.301Z,-0.71
2022-11-29T05:26:09.398Z,-0.72
2022-11-29T05:28:43.171Z,-0.71
2022-11-29T05:31:39.385Z,-0.69
2022-11-29T05:34:30.250Z,-0.70
2022-11-29T05:37:20.069Z,-0.72
2022-11-29T05:40:10.302Z,-0.71
2022-11-29T05:43:10.492Z,-0.68
2022-11-29T05:45:55.584Z,-0.67
2022-11-29T05:48:38.307Z,-0.63
2022-11-29T05:51:21.732Z,-0.59
2022-11-29T05:54:14.904Z,-0.58
2022-11-29T05:56:49.637Z,-0.59
2022-11-29T05:59:20.853Z,-0.63
2022-11-29T06:02:14.227Z,-0.66
2022-11-29T06:04:57.393Z,-0.69
2022-11-29T06:07:45.418Z,-0.73
2022-11-29T06:10:17.842Z,-0.76
2022-11-29T06:13:11.890Z,-0.75
2022-11-29T06:15:58.651Z,-0.74
2022-11-29T06:19:05.363Z,-0.74
2022-11-29T06:22:01.142Z,-0.73
2022-11-29T06:24:41.732Z,-0.70
2022-11-29T06:27:31.911Z,-0.69
2022-11-29T06:30:18.461Z,-0.68
2022-11-29T06:32:57.066Z,-0.73
2022-11-29T06:35:54.369Z,-0.79
2022-11-29T06:38:26.065Z,-0.74
2022-11-29T06:40:58.697Z,-0.65
2022-11-29T06:43:30.393Z,-0.61
2022-11-29T06:46:14.341Z,-0.61
2022-11-29T06:48:49.784Z,-0.63
2022-11-29T06:51:30.835Z,-0.63
2022-11-29T06:54:08.187Z,-0.62
2022-11-29T06:56:41.739Z,-0.63
2022-11-29T06:59:28.588Z,-0.67
2022-11-29T07:02:38.867Z,-0.74
2022-11-29T07:05:27.257Z,-0.84
2022-11-29T07:08:04.455Z,-0.86
2022-11-29T07:10:35.189Z,-0.88
2022-11-29T07:13:03.437Z,-0.89
2022-11-29T07:15:31.886Z,-0.87
2022-11-29T07:17:59.612Z,-0.84
2022-11-29T07:20:44.628Z,-0.82
2022-11-29T07:23:21.783Z,-0.83
2022-11-29T07:26:27.091Z,-0.84
2022-11-29T07:29:23.235Z,-0.84
2022-11-29T07:32:09.318Z,-0.81
2022-11-29T07:34:40.014Z,-0.77
2022-11-29T07:37:11.023Z,-0.76
2022-11-29T07:39:46.886Z,-0.72
2022-11-29T07:42:54.315Z,-0.67
2022-11-29T07:45:36.849Z,-0.49
2022-11-29T07:48:04.863Z,-0.17
2022-11-29T07:50:43.555Z,0.37
2022-11-29T07:53:30.362Z,1.15
2022-11-29T07:55:58.677Z,1.87
2022-11-29T07:58:27.027Z,2.53
2022-11-29T08:00:55.005Z,3.16
2022-11-29T08:03:23.121Z,3.75
2022-11-29T08:05:51.056Z,4.06
2022-11-29T08:08:18.894Z,4.45
2022-11-29T08:10:47.425Z,4.86
2022-11-29T08:13:15.461Z,5.28
2022-11-29T08:15:47.590Z,5.47
2022-11-29T08:18:17.679Z,5.39
2022-11-29T08:20:46.496Z,5.16
2022-11-29T08:23:14.980Z,4.89
2022-11-29T08:25:43.167Z,4.60
2022-11-29T08:28:11.241Z,4.55
2022-11-29T08:30:39.637Z,4.74
2022-11-29T08:33:08.803Z,5.10
2022-11-29T08:35:36.666Z,5.69
2022-11-29T08:38:05.183Z,6.27
2022-11-29T08:40:33.528Z,6.85
2022-11-29T08:43:01.408Z,7.22
2022-11-29T08:45:29.423Z,7.62
2022-11-29T08:47:57.368Z,8.12
2022-11-29T08:50:25.822Z,8.69
2022-11-29T08:53:12.393Z,9.12
2022-11-29T08:55:42.940Z,9.60
2022-11-29T08:58:13.960Z,9.93
2022-11-29T09:00:45.625Z,10.24
2022-11-29T09:03:32.309Z,10.47
2022-11-29T09:06:10.440Z,10.59
2022-11-29T09:08:43.802Z,10.71
2022-11-29T09:11:23.772Z,10.83
2022-11-29T09:13:58.156Z,11.06
2022-11-29T09:16:29.405Z,11.51
2022-11-29T09:18:57.533Z,12.09
2022-11-29T09:21:27.517Z,12.49
2022-11-29T09:23:59.413Z,12.68
2022-11-29T09:26:30.449Z,12.85
2022-11-29T09:29:01.585Z,12.96
2022-11-29T09:31:31.488Z,13.04
2022-11-29T09:33:59.810Z,13.04
2022-11-29T09:36:29.461Z,13.29
2022-11-29T09:38:58.156Z,13.50
2022-11-29T09:41:45.605Z,13.55
2022-11-29T09:44:43.424Z,13.58
2022-11-29T09:47:23.864Z,13.84
2022-11-29T09:50:21.813Z,14.17
2022-11-29T09:53:27.467Z,14.30
2022-11-29T09:56:05.918Z,14.29
2022-11-29T09:58:43.708Z,14.29
2022-11-29T10:01:20.732Z,14.45
2022-11-29T10:04:01.038Z,14.67
2022-11-29T10:06:37.017Z,14.91
2022-11-29T10:09:15.846Z,15.22
2022-11-29T10:11:53.531Z,15.55
2022-11-29T10:14:27.223Z,15.88
2022-11-29T10:17:18.277Z,16.01
2022-11-29T10:20:03.275Z,15.97
2022-11-29T10:22:36.958Z,16.07
2022-11-29T10:25:06.967Z,16.42
2022-11-29T10:27:39.280Z,16.78
2022-11-29T10:30:14.949Z,17.13
2022-11-29T10:32:46.742Z,17.30
2022-11-29T10:35:17.318Z,17.40
2022-11-29T10:38:01.544Z,17.43
2022-11-29T10:40:37.946Z,17.63
2022-11-29T10:43:05.933Z,18.00
2022-11-29T10:45:39.176Z,18.37
2022-11-29T10:48:12.759Z,18.62
2022-11-29T10:50:42.750Z,18.57
2022-11-29T10:53:17.210Z,18.63
2022-11-29T10:56:01.638Z,18.87
2022-11-29T10:58:30.932Z,18.91
2022-11-29T11:01:06.950Z,18.88
2022-11-29T11:03:42.532Z,18.93
2022-11-29T11:06:16.434Z,18.85
2022-11-29T11:08:55.264Z,18.74
2022-11-29T11:11:29.169Z,18.90
2022-11-29T11:13:58.063Z,19.30
2022-11-29T11:16:27.080Z,19.77
2022-11-29T11:18:55.134Z,20.14
2022-11-29T11:21:24.332Z,20.29
2022-11-29T11:23:56.807Z,20.34
2022-11-29T11:26:26.297Z,20.27
2022-11-29T11:29:02.579Z,20.00
2022-11-29T11:31:41.069Z,19.83
2022-11-29T11:34:26.731Z,19.27
2022-11-29T11:37:31.516Z,18.66
2022-11-29T11:40:18.404Z,18.78
2022-11-29T11:42:47.196Z,18.82
2022-11-29T11:45:15.113Z,18.56
2022-11-29T11:47:46.597Z,18.37
2022-11-29T11:50:15.477Z,18.16
2022-11-29T11:52:55.755Z,17.77
2022-11-29T11:55:40.806Z,17.08
2022-11-29T11:58:16.233Z,16.93
2022-11-29T12:01:06.274Z,17.46
2022-11-29T12:03:49.820Z,18.23
2022-11-29T12:06:24.293Z,18.80
2022-11-29T12:09:02.581Z,18.88
2022-11-29T12:11:48.578Z,18.21
2022-11-29T12:14:27.243Z,17.19
2022-11-29T12:17:01.886Z,16.63
2022-11-29T12:19:42.030Z,16.35
2022-11-29T12:22:13.956Z,16.53
2022-11-29T12:24:51.779Z,17.11
2022-11-29T12:27:19.622Z,17.73
2022-11-29T12:29:47.521Z,18.21
2022-11-29T12:32:15.208Z,18.59
2022-11-29T12:35:01.162Z,18.89
2022-11-29T12:37:49.934Z,19.26
2022-11-29T12:40:17.582Z,19.48
2022-11-29T12:43:02.559Z,19.54
2022-11-29T12:46:17.201Z,19.35
2022-11-29T12:49:14.005Z,19.15
2022-11-29T12:52:01.795Z,19.04
2022-11-29T12:54:43.915Z,18.88
2022-11-29T12:57:18.116Z,18.82
2022-11-29T13:00:01.275Z,18.73
2022-11-29T13:03:14.537Z,18.96
2022-11-29T13:06:18.794Z,19.12
2022-11-29T13:09:14.182Z,19.34
2022-11-29T13:12:09.672Z,19.53
2022-11-29T13:14:49.788Z,19.67
2022-11-29T13:17:55.889Z,19.84
2022-11-29T13:20:35.149Z,19.93
2022-11-29T13:23:39.008Z,19.85
2022-11-29T13:26:13.891Z,19.46
2022-11-29T13:28:44.485Z,19.07
2022-11-29T13:31:17.328Z,18.42
2022-11-29T13:34:14.454Z,17.36
2022-11-29T13:36:54.544Z,15.90
2022-11-29T13:39:39.126Z,14.79
2022-11-29T13:42:29.465Z,13.77
2022-11-29T13:45:00.287Z,12.82
2022-11-29T13:47:28.686Z,12.05
2022-11-29T13:50:06.691Z,11.45
2022-11-29T13:52:47.768Z,10.96
2022-11-29T13:55:28.908Z,10.71
2022-11-29T13:58:16.702Z,10.46
2022-11-29T14:00:45.915Z,10.21
2022-11-29T14:03:28.972Z,10.00
2022-11-29T14:06:16.062Z,9.75
2022-11-29T14:11:52.626Z,9.32
2022-11-29T14:14:49.990Z,9.12
2022-11-29T14:17:47.683Z,8.94
2022-11-29T14:20:30.830Z,8.72
2022-11-29T14:23:04.853Z,8.54
2022-11-29T14:25:50.974Z,8.39
2022-11-29T14:28:22.784Z,8.23
2022-11-29T14:30:55.545Z,8.04
2022-11-29T14:33:37.697Z,7.84
2022-11-29T14:36:14.525Z,7.62
2022-11-29T14:39:01.273Z,7.46
2022-11-29T14:41:38.942Z,7.30
2022-11-29T14:44:39.361Z,7.16
2022-11-29T14:47:18.951Z,7.07
2022-11-29T14:49:47.076Z,6.96
2022-11-29T14:52:14.784Z,6.76
2022-11-29T14:54:57.584Z,6.61
2022-11-29T14:57:47.441Z,6.51
2022-11-29T15:00:16.203Z,6.46
2022-11-29T15:02:50.364Z,6.39
2022-11-29T15:05:24.458Z,6.32
2022-11-29T15:08:32.967Z,6.27
2022-11-29T15:11:10.038Z,6.26
2022-11-29T15:13:51.221Z,6.30
2022-11-29T15:16:34.517Z,6.32
2022-11-29T15:19:08.664Z,6.30
2022-11-29T15:22:09.845Z,6.25
2022-11-29T15:25:05.166Z,6.17
2022-11-29T15:27:37.368Z,5.99
2022-11-29T15:30:21.586Z,5.81
2022-11-29T15:32:49.521Z,5.62
2022-11-29T15:35:19.825Z,5.44
2022-11-29T15:37:49.833Z,5.24
2022-11-29T15:40:21.511Z,5.08
2022-11-29T15:42:58.010Z,4.94
2022-11-29T15:45:27.914Z,4.84
2022-11-29T15:48:10.517Z,4.73
2022-11-29T15:50:42.958Z,4.62
2022-11-29T15:53:19.589Z,4.51
2022-11-29T15:55:50.933Z,4.40
2022-11-29T15:58:19.354Z,4.34
2022-11-29T16:00:49.846Z,4.28
2022-11-29T16:03:30.042Z,4.19
2022-11-29T16:06:08.509Z,4.18
2022-11-29T16:08:41.997Z,4.13
2022-11-29T16:11:17.248Z,4.04
2022-11-29T16:14:11.447Z,3.97
2022-11-29T16:16:41.801Z,3.82
2022-11-29T16:19:11.243Z,3.66
2022-11-29T16:21:39.351Z,3.56
2022-11-29T16:24:21.373Z,3.45
2022-11-29T16:26:50.989Z,3.37
2022-11-29T16:29:46.466Z,3.33
2022-11-29T16:32:15.949Z,3.29
2022-11-29T16:34:45.035Z,3.30
2022-11-29T16:37:42.133Z,3.30
2022-11-29T16:40:25.922Z,3.31
2022-11-29T16:43:03.182Z,3.27
2022-11-29T16:45:41.495Z,3.19
2022-11-29T16:48:26.761Z,3.10
2022-11-29T16:51:09.849Z,3.03
2022-11-29T16:53:47.786Z,2.96
2022-11-29T16:56:17.495Z,2.86
2022-11-29T16:59:16.981Z,2.75
2022-11-29T17:01:37.826Z,2.64
2022-11-29T17:04:05.624Z,2.55
2022-11-29T17:06:35.462Z,2.45
2022-11-29T17:09:04.258Z,2.36
2022-11-29T17:11:32.569Z,2.32
2022-11-29T17:14:00.554Z,2.24
2022-11-29T17:16:28.557Z,2.25
2022-11-29T17:18:56.686Z,2.24
2022-11-29T17:21:27.049Z,2.20
2022-11-29T17:23:55.284Z,2.13
2022-11-29T17:26:23.490Z,2.08
2022-11-29T17:28:52.031Z,2.01
2022-11-29T17:31:24.282Z,1.93
2022-11-29T17:33:52.429Z,1.82
2022-11-29T17:36:21.463Z,1.76
2022-11-29T17:38:49.362Z,1.71
2022-11-29T17:41:18.714Z,1.66
2022-11-29T17:43:46.468Z,1.60
2022-11-29T17:46:15.880Z,1.57
2022-11-29T17:48:46.261Z,1.58
2022-11-29T17:51:43.767Z,1.62
2022-11-29T17:54:04.518Z,1.61
2022-11-29T17:56:32.904Z,1.58
2022-11-29T17:59:02.728Z,1.56
2022-11-29T18:01:35.947Z,1.59
2022-11-29T18:04:06.264Z,1.57
2022-11-29T18:06:40.815Z,1.58
2022-11-29T18:09:09.672Z,1.61
2022-11-29T18:11:46.934Z,1.60
2022-11-29T18:14:18.578Z,1.59
2022-11-29T18:16:46.663Z,1.56
2022-11-29T18:19:17.310Z,1.48
2022-11-29T18:21:45.375Z,1.44
2022-11-29T18:24:13.645Z,1.45
2022-11-29T18:26:42.221Z,1.44
2022-11-29T18:29:10.587Z,1.43
2022-11-29T18:31:40.227Z,1.38
2022-11-29T18:34:09.994Z,1.36
2022-11-29T18:37:20.019Z,1.35
2022-11-29T18:48:14.759Z,1.55
2022-11-29T18:50:41.292Z,1.67
2022-11-29T18:53:07.926Z,1.64
2022-11-29T18:55:34.553Z,1.60
2022-11-29T18:58:01.073Z,1.52
2022-11-29T19:00:27.569Z,1.44
2022-11-29T19:02:55.541Z,1.39
2022-11-29T19:05:22.313Z,1.32
2022-11-29T19:07:48.763Z,1.25
2022-11-29T19:10:15.460Z,1.20
2022-11-29T19:12:42.056Z,1.19
2022-11-29T19:15:09.077Z,1.20
2022-11-29T19:17:40.154Z,1.14
2022-11-29T19:20:10.159Z,1.09
2022-11-29T19:22:36.717Z,1.09
2022-11-29T19:25:03.466Z,1.12
2022-11-29T19:27:30.175Z,1.15
2022-11-29T19:29:56.714Z,1.18
2022-11-29T19:32:23.552Z,1.19
2022-11-29T19:34:50.232Z,1.19
2022-11-29T19:37:16.958Z,1.22
2022-11-29T19:39:44.027Z,1.26
2022-11-29T19:42:10.804Z,1.28
2022-11-29T19:45:08.621Z,1.32
2022-11-29T19:47:24.349Z,1.43
2022-11-29T19:49:50.962Z,1.57
2022-11-29T19:52:17.786Z,1.61
2022-11-29T19:54:44.300Z,1.59
2022-11-29T19:57:11.760Z,1.57
2022-11-29T19:59:38.324Z,1.57
2022-11-29T20:02:05.041Z,1.60
2022-11-29T20:04:31.795Z,1.59
2022-11-29T20:06:58.298Z,1.55
2022-11-29T20:09:27.707Z,1.50
2022-11-29T20:11:54.304Z,1.48
2022-11-29T20:14:21.514Z,1.42
2022-11-29T20:16:48.252Z,1.39
2022-11-29T20:19:16.288Z,1.39
2022-11-29T20:21:45.715Z,1.42
2022-11-29T20:24:13.686Z,1.48
2022-11-29T20:26:43.625Z,1.50
2022-11-29T20:29:11.174Z,1.50
2022-11-29T20:31:44.387Z,1.57
2022-11-29T20:34:14.765Z,1.65
2022-11-29T20:37:12.569Z,1.70
2022-11-29T20:39:52.871Z,1.69
2022-11-29T20:42:38.623Z,1.62
2022-11-29T20:45:08.329Z,1.56
2022-11-29T20:48:08.690Z,1.55
2022-11-29T20:50:35.313Z,1.47
2022-11-29T20:53:29.181Z,1.43
2022-11-29T20:55:55.872Z,1.45
2022-11-29T20:58:22.445Z,1.44
2022-11-29T21:00:49.026Z,1.42
2022-11-29T21:03:17.536Z,1.41
2022-11-29T21:05:45.065Z,1.39
2022-11-29T21:08:13.500Z,1.37
2022-11-29T21:10:39.875Z,1.35
2022-11-29T21:13:07.011Z,1.30
2022-11-29T21:15:34.142Z,1.31
2022-11-29T21:18:01.066Z,1.36
2022-11-29T21:20:27.854Z,1.39
2022-11-29T21:23:06.993Z,1.40
2022-11-29T21:25:55.813Z,1.43
2022-11-29T21:28:25.178Z,1.51
2022-11-29T21:30:51.915Z,1.53
2022-11-29T21:33:18.858Z,1.60
2022-11-29T21:35:46.776Z,1.63
2022-11-29T21:38:23.915Z,1.64
2022-11-29T21:40:51.123Z,1.69
2022-11-29T21:43:17.723Z,1.73
2022-11-29T21:45:46.992Z,1.75
2022-11-29T21:48:32.867Z,1.75
2022-11-29T21:50:59.266Z,1.74
2022-11-29T21:53:27.436Z,1.76
2022-11-29T21:56:04.115Z,1.78
2022-11-29T21:58:32.331Z,1.81
2022-11-29T22:01:11.922Z,1.80
2022-11-29T22:03:39.509Z,1.73
2022-11-29T22:06:09.288Z,1.67
2022-11-29T22:08:40.678Z,1.66
2022-11-29T22:11:10.063Z,1.66
2022-11-29T22:13:57.381Z,1.67
2022-11-29T22:16:24.168Z,1.70
2022-11-29T22:18:50.986Z,1.74
2022-11-29T22:21:17.610Z,1.75
2022-11-29T22:23:44.275Z,1.72
2022-11-29T22:26:11.430Z,1.75
2022-11-29T22:28:38.099Z,1.80
2022-11-29T22:31:10.172Z,1.79
2022-11-29T22:33:37.842Z,1.75
2022-11-29T22:36:05.321Z,1.73
2022-11-29T22:38:32.296Z,1.72
2022-11-29T22:41:04.278Z,1.71
2022-11-29T22:43:31.885Z,1.74
2022-11-29T22:46:12.332Z,1.80
2022-11-29T22:48:39.296Z,1.89
2022-11-29T22:51:15.145Z,1.93
2022-11-29T22:53:47.067Z,1.89
2022-11-29T22:56:13.806Z,1.84
2022-11-29T22:58:40.321Z,1.82
2022-11-29T23:01:11.420Z,1.83
2022-11-29T23:03:39.252Z,1.88
2022-11-29T23:06:08.388Z,1.89
2022-11-29T23:08:35.458Z,1.87
2022-11-29T23:11:03.954Z,1.84
2022-11-29T23:13:36.268Z,1.82
2022-11-29T23:16:03.695Z,1.83
2022-11-29T23:18:30.629Z,1.82
2022-11-29T23:21:11.139Z,1.80
2022-11-29T23:23:38.072Z,1.73
2022-11-29T23:26:06.675Z,1.67
2022-11-29T23:28:34.461Z,1.62
2022-11-29T23:31:01.470Z,1.59
2022-11-29T23:33:28.059Z,1.64
2022-11-29T23:36:04.413Z,1.67
2022-11-29T23:38:31.077Z,1.67
2022-11-29T23:40:58.215Z,1.67
2022-11-29T23:43:27.904Z,1.66
2022-11-29T23:45:54.686Z,1.69
2022-11-29T23:48:21.270Z,1.69
2022-11-29T23:50:48.318Z,1.69
2022-11-29T23:53:16.850Z,1.69
2022-11-29T23:55:43.297Z,1.69
2022-11-29T23:58:10.284Z,1.69
